Time;durP1;ratioP1;P1;durP2;ratioP2;P2;SDS_P1;SDS_P2;PMS_P1;PMS_P2;Temp;Humidity;BMP_temperature;BMP_pressure;BME280_temperature;BME280_humidity;BME280_pressure;Samples;Min_cycle;Max_cycle;Signal;HPM_P1;HPM_P2
2023/07/24 00:00:33;;;;;;;19.40;12.98;;;;;;;19.06;86.98;97826.25;10287935;28;20068;-53
2023/07/24 00:05:34;;;;;;;16.80;12.48;;;;;;;18.95;88.02;97831.91;10288341;28;20546;-52
2023/07/24 00:10:33;;;;;;;18.67;13.02;;;;;;;18.71;90.10;97839.66;10301921;28;20135;-51
2023/07/24 00:15:32;;;;;;;19.45;14.13;;;;;;;18.65;90.15;97833.72;10286283;28;20060;-51
2023/07/24 00:20:31;;;;;;;19.48;12.60;;;;;;;18.43;89.76;97834.38;10287726;28;20401;-52
2023/07/24 00:25:30;;;;;;;19.52;13.18;;;;;;;18.40;89.58;97845.00;10285113;28;20036;-52
2023/07/24 00:30:29;;;;;;;18.33;14.30;;;;;;;18.31;89.33;97830.38;10284715;28;20566;-52
2023/07/24 00:35:28;;;;;;;17.85;13.07;;;;;;;18.11;90.55;97849.38;10281927;28;20050;-52
2023/07/24 00:40:27;;;;;;;19.75;13.95;;;;;;;18.10;90.03;97824.00;10284834;28;20120;-50
2023/07/24 00:45:26;;;;;;;20.55;13.70;;;;;;;18.01;91.02;97826.06;10282434;28;20555;-52
2023/07/24 00:50:25;;;;;;;19.73;13.35;;;;;;;18.01;90.44;97826.94;10283532;28;20510;-51
2023/07/24 00:55:24;;;;;;;19.52;13.57;;;;;;;17.95;91.18;97817.47;10282914;28;20064;-50
2023/07/24 01:00:23;;;;;;;19.25;13.48;;;;;;;18.01;90.69;97815.56;10281594;28;20577;-52
2023/07/24 01:05:25;;;;;;;18.95;13.52;;;;;;;17.97;91.10;97806.94;10283347;28;20065;-51
2023/07/24 01:10:24;;;;;;;20.10;13.85;;;;;;;17.98;90.85;97800.75;10282108;28;20144;-51
2023/07/24 01:15:29;;;;;;;19.35;12.38;;;;;;;17.71;91.66;97807.66;10282850;28;20076;-51
2023/07/24 01:20:30;;;;;;;16.90;12.48;;;;;;;17.69;91.10;97801.59;10282379;28;20161;-51
2023/07/24 01:25:37;;;;;;;18.95;12.77;;;;;;;17.62;90.85;97793.03;10281016;28;20140;-50
2023/07/24 01:30:36;;;;;;;17.77;12.70;;;;;;;17.56;90.87;97804.53;10283122;28;20149;-52
2023/07/24 01:35:38;;;;;;;20.10;13.35;;;;;;;17.51;90.88;97800.34;10280471;28;20112;-52
2023/07/24 01:40:38;;;;;;;20.85;13.52;;;;;;;17.44;91.76;97794.41;10281288;28;20098;-49
2023/07/24 01:45:37;;;;;;;22.60;15.73;;;;;;;17.36;92.54;97796.41;10280161;28;20137;-53
2023/07/24 01:50:36;;;;;;;21.27;14.90;;;;;;;17.32;92.81;97803.47;10296647;28;20048;-51
2023/07/24 01:55:35;;;;;;;22.83;16.13;;;;;;;17.26;92.30;97792.28;10279749;28;20096;-51
2023/07/24 02:00:34;;;;;;;22.02;15.20;;;;;;;17.29;93.03;97806.19;10288058;28;20416;-51
2023/07/24 02:05:34;;;;;;;20.60;14.60;;;;;;;17.27;93.12;97800.13;10279156;28;20022;-50
2023/07/24 02:10:36;;;;;;;20.83;14.23;;;;;;;17.25;93.36;97804.53;10279724;28;20137;-51
2023/07/24 02:15:36;;;;;;;18.75;12.82;;;;;;;17.25;92.97;97794.06;10280480;28;20467;-49
2023/07/24 02:20:35;;;;;;;19.83;12.63;;;;;;;17.29;92.23;97785.22;10280073;28;20072;-49
2023/07/24 02:25:35;;;;;;;19.75;13.60;;;;;;;17.24;92.17;97802.84;10280758;28;20030;-50
2023/07/24 02:30:38;;;;;;;23.90;14.15;;;;;;;17.16;92.30;97799.53;10283818;28;20076;-51
2023/07/24 02:35:41;;;;;;;19.77;13.55;;;;;;;17.18;92.06;97791.66;10281834;28;20072;-52
2023/07/24 02:40:41;;;;;;;22.33;13.15;;;;;;;17.14;91.84;97789.13;10283385;28;20507;-52
2023/07/24 02:45:40;;;;;;;19.80;14.25;;;;;;;17.16;91.47;97789.06;10284306;28;20058;-50
2023/07/24 02:50:39;;;;;;;25.92;15.45;;;;;;;17.08;91.53;97775.31;10284143;28;20154;-52
2023/07/24 02:55:42;;;;;;;23.02;14.13;;;;;;;17.07;92.06;97790.16;10290582;28;20107;-51
2023/07/24 03:00:41;;;;;;;21.15;14.10;;;;;;;17.05;91.54;97791.97;10289829;28;20072;-52
2023/07/24 03:05:39;;;;;;;22.83;13.57;;;;;;;17.05;91.29;97785.84;10290478;28;20036;-51
2023/07/24 03:10:41;;;;;;;21.98;13.85;;;;;;;17.03;90.94;97787.69;10289286;28;20476;-51
2023/07/24 03:15:40;;;;;;;20.45;13.68;;;;;;;16.97;90.92;97782.59;10291284;28;20076;-49
2023/07/24 03:20:39;;;;;;;21.73;14.15;;;;;;;16.97;90.53;97772.09;10288782;28;20119;-49
2023/07/24 03:25:38;;;;;;;24.90;13.18;;;;;;;16.95;90.28;97772.13;10287270;28;20117;-49
2023/07/24 03:30:37;;;;;;;19.60;13.60;;;;;;;17.02;89.84;97772.84;10285459;28;20046;-51
2023/07/24 03:35:36;;;;;;;16.25;11.75;;;;;;;17.07;89.75;97784.06;10285692;28;20046;-52
2023/07/24 03:40:35;;;;;;;18.08;12.68;;;;;;;17.06;89.60;97782.34;10284750;28;20065;-49
2023/07/24 03:45:34;;;;;;;17.75;12.32;;;;;;;17.01;88.92;97786.88;10286942;28;20052;-51
2023/07/24 03:50:33;;;;;;;21.92;13.25;;;;;;;16.95;89.29;97789.63;10285631;28;20037;-51
2023/07/24 03:55:32;;;;;;;16.73;10.57;;;;;;;16.95;89.18;97787.88;10285643;28;20116;-51
2023/07/24 04:00:31;;;;;;;15.20;10.48;;;;;;;17.13;87.43;97783.91;10285041;28;20033;-51
2023/07/24 04:05:30;;;;;;;13.57;9.02;;;;;;;17.22;85.35;97777.56;10283847;28;20026;-52
2023/07/24 04:10:30;;;;;;;13.98;9.38;;;;;;;17.24;83.58;97776.63;10286206;28;20515;-50
2023/07/24 04:15:29;;;;;;;18.08;10.63;;;;;;;17.24;83.74;97754.75;10283013;28;20138;-51
2023/07/24 04:20:28;;;;;;;24.95;10.43;;;;;;;17.44;83.93;97769.94;10285188;28;20052;-50
2023/07/24 04:25:27;;;;;;;20.23;10.88;;;;;;;17.55;83.14;97770.50;10283652;28;20046;-52
2023/07/24 04:30:26;;;;;;;16.27;10.48;;;;;;;17.59;84.21;97781.75;10282714;28;20393;-52
2023/07/24 04:35:27;;;;;;;27.52;11.73;;;;;;;17.61;84.84;97791.28;10284687;28;20044;-50
2023/07/24 04:40:25;;;;;;;18.42;12.00;;;;;;;17.63;85.19;97793.88;10281365;28;20066;-52
2023/07/24 04:45:24;;;;;;;20.55;10.50;;;;;;;17.87;85.25;97792.34;10284491;28;20030;-53
2023/07/24 04:50:23;;;;;;;19.77;12.85;;;;;;;18.13;84.13;97808.19;10282302;28;20088;-51
2023/07/24 04:55:22;;;;;;;15.60;10.93;;;;;;;18.30;83.06;97804.19;10280830;28;20121;-53
2023/07/24 05:00:21;;;;;;;18.00;11.48;;;;;;;18.48;82.02;97806.22;10254046;28;20048;-50
2023/07/24 05:05:20;;;;;;;16.90;11.30;;;;;;;18.76;82.12;97794.81;10281936;28;20153;-52
2023/07/24 05:10:19;;;;;;;21.75;11.23;;;;;;;18.89;79.62;97801.41;10201128;28;20153;-53
2023/07/24 05:15:18;;;;;;;20.73;12.35;;;;;;;18.87;80.13;97792.69;10284937;28;20042;-52
2023/07/24 05:20:17;;;;;;;19.65;12.38;;;;;;;19.07;80.89;97796.44;10280909;28;20551;-52
2023/07/24 05:25:16;;;;;;;17.95;12.18;;;;;;;19.23;80.14;97795.00;10284373;28;20563;-51
2023/07/24 05:30:15;;;;;;;19.10;12.07;;;;;;;19.21;80.71;97773.13;10283413;28;20489;-50
2023/07/24 05:35:14;;;;;;;20.58;12.48;;;;;;;19.49;80.19;97785.31;10282235;28;20141;-50
2023/07/24 05:40:13;;;;;;;20.30;12.77;;;;;;;19.60;79.55;97794.56;10284626;28;20058;-51
2023/07/24 05:45:12;;;;;;;20.23;13.23;;;;;;;19.66;79.36;97788.19;10282460;28;20503;-52
2023/07/24 05:50:13;;;;;;;20.48;12.32;;;;;;;19.74;79.62;97780.84;10286382;28;20033;-52
2023/07/24 05:55:12;;;;;;;18.20;12.77;;;;;;;19.90;79.36;97780.28;10284899;28;20554;-51
2023/07/24 06:00:11;;;;;;;21.17;13.32;;;;;;;20.12;78.29;97781.19;10282051;28;20553;-52
2023/07/24 06:05:10;;;;;;;22.60;11.90;;;;;;;20.28;78.23;97782.31;10282255;28;20084;-51
2023/07/24 06:10:09;;;;;;;17.75;11.77;;;;;;;20.35;78.43;97766.22;10282600;28;20117;-50
2023/07/24 06:15:09;;;;;;;18.15;13.52;;;;;;;20.51;77.74;97770.00;10283549;28;20178;-52
2023/07/24 06:20:08;;;;;;;19.45;13.10;;;;;;;20.49;77.88;97769.19;10282763;28;20064;-52
2023/07/24 06:25:07;;;;;;;18.65;11.88;;;;;;;20.63;78.00;97756.31;10281790;28;20057;-52
2023/07/24 06:30:07;;;;;;;18.45;13.38;;;;;;;20.67;78.07;97760.53;10277775;28;20069;-52
2023/07/24 06:35:06;;;;;;;18.88;13.20;;;;;;;20.69;77.49;97766.59;10281420;28;20125;-50
2023/07/24 06:40:07;;;;;;;19.20;13.13;;;;;;;20.90;77.87;97762.19;10278346;28;20069;-50
2023/07/24 06:45:06;;;;;;;16.55;13.00;;;;;;;20.94;75.90;97736.56;10279032;28;20096;-50
2023/07/24 06:50:06;;;;;;;15.63;11.88;;;;;;;21.36;75.09;97751.47;10277476;28;20134;-52
2023/07/24 06:55:05;;;;;;;17.05;12.30;;;;;;;21.84;71.96;97758.06;10278155;28;20144;-53
2023/07/24 07:00:06;;;;;;;20.08;11.82;;;;;;;22.25;68.74;97765.88;10278676;28;20133;-50
2023/07/24 07:05:05;;;;;;;15.35;12.02;;;;;;;22.66;67.62;97747.09;10277633;28;20137;-53
2023/07/24 07:10:05;;;;;;;17.00;11.80;;;;;;;23.21;65.21;97739.03;10274458;28;20050;-48
2023/07/24 07:15:04;;;;;;;17.13;10.23;;;;;;;23.68;61.67;97733.94;10272818;28;20133;-48
2023/07/24 07:20:04;;;;;;;14.05;10.57;;;;;;;24.19;60.60;97727.59;10275120;28;20057;-48
2023/07/24 07:25:04;;;;;;;15.18;10.00;;;;;;;24.59;57.38;97721.75;10281395;28;20343;-51
2023/07/24 07:30:04;;;;;;;16.33;10.90;;;;;;;24.86;53.83;97727.25;10274143;28;20137;-50
2023/07/24 07:35:03;;;;;;;44.72;12.15;;;;;;;24.90;55.12;97712.91;10275326;28;20136;-50
2023/07/24 07:40:03;;;;;;;14.02;10.27;;;;;;;25.15;53.18;97712.25;10280510;28;20073;-53
2023/07/24 07:45:04;;;;;;;14.95;10.13;;;;;;;25.32;52.01;97708.56;10283928;28;20289;-52
2023/07/24 07:50:03;;;;;;;14.55;8.90;;;;;;;25.70;52.50;97706.19;10284068;28;20488;-51
2023/07/24 07:55:02;;;;;;;13.27;8.80;;;;;;;26.03;50.38;97707.66;10282805;28;20156;-52
2023/07/24 08:00:03;;;;;;;13.95;9.25;;;;;;;26.49;49.14;97706.50;10290202;28;20088;-52
2023/07/24 08:05:02;;;;;;;13.45;8.57;;;;;;;26.69;47.03;97697.16;10283923;28;20054;-52
2023/07/24 08:10:04;;;;;;;10.88;8.20;;;;;;;26.96;46.07;97700.66;10281634;28;20190;-50
2023/07/24 08:15:03;;;;;;;12.18;8.40;;;;;;;27.12;45.17;97700.44;10287188;28;20437;-53
2023/07/24 08:20:03;;;;;;;12.35;8.45;;;;;;;27.24;43.50;97684.53;10276508;28;20144;-51
2023/07/24 08:25:02;;;;;;;14.43;8.85;;;;;;;27.51;42.34;97681.78;10287153;28;20049;-51
2023/07/24 08:30:00;;;;;;;14.40;10.07;;;;;;;27.80;42.25;97675.22;10277494;28;20054;-52
2023/07/24 08:34:59;;;;;;;14.18;8.57;;;;;;;27.77;42.86;97651.44;10283010;28;20064;-51
2023/07/24 08:39:59;;;;;;;14.57;8.30;;;;;;;28.18;40.58;97654.72;10283833;28;20108;-51
2023/07/24 08:44:58;;;;;;;10.20;7.68;;;;;;;28.29;39.94;97654.78;10277740;28;20200;-50
2023/07/24 08:49:58;;;;;;;12.05;8.23;;;;;;;28.34;39.31;97641.09;10283675;28;20104;-51
2023/07/24 08:54:59;;;;;;;10.95;6.43;;;;;;;28.69;38.15;97641.13;10288956;28;20787;-52
2023/07/24 09:00:00;;;;;;;12.18;6.97;;;;;;;28.93;36.28;97641.03;10282228;28;20132;-50
2023/07/24 09:04:59;;;;;;;11.27;6.95;;;;;;;29.31;36.70;97639.88;10283764;28;20072;-51
2023/07/24 09:09:58;;;;;;;9.90;6.88;;;;;;;29.64;35.02;97630.13;10280556;28;20036;-51
2023/07/24 09:15:04;;;;;;;10.32;6.97;;;;;;;29.70;33.88;97621.59;10280590;28;20129;-50
2023/07/24 09:20:04;;;;;;;10.98;8.20;;;;;;;29.82;34.37;97614.41;10283196;28;20181;-52
2023/07/24 09:25:05;;;;;;;9.43;6.88;;;;;;;29.98;34.89;97603.34;10281018;28;20157;-52
2023/07/24 09:30:13;;;;;;;12.82;8.07;;;;;;;30.24;34.29;97599.31;10282128;28;20069;-52
2023/07/24 09:35:18;;;;;;;;;;;;;;;30.34;33.66;97594.88;10280329;28;20108;-49
2023/07/24 09:40:17;;;;;;;14.13;8.77;;;;;;;30.55;34.19;97570.81;10279726;28;19947;-52
2023/07/24 09:45:16;;;;;;;13.93;8.48;;;;;;;30.82;32.24;97580.16;10280423;28;20025;-52
2023/07/24 09:50:14;;;;;;;14.52;8.52;;;;;;;30.91;32.81;97575.81;10279482;28;20432;-50
2023/07/24 09:55:27;;;;;;;16.80;10.50;;;;;;;31.23;31.70;97570.31;10281082;28;20026;-52
2023/07/24 10:00:27;;;;;;;17.58;9.93;;;;;;;31.59;31.71;97565.38;10281164;28;20061;-51
2023/07/24 10:05:27;;;;;;;14.68;10.07;;;;;;;31.82;32.44;97555.22;10280584;28;20116;-49
2023/07/24 10:10:29;;;;;;;14.05;10.35;;;;;;;31.98;30.30;97535.91;10280971;28;20133;-52
2023/07/24 10:15:29;;;;;;;15.68;10.50;;;;;;;31.82;29.72;97531.09;10281112;28;20080;-52
2023/07/24 10:20:34;;;;;;;14.32;9.82;;;;;;;32.10;28.43;97523.22;10284015;28;20125;-52
2023/07/24 10:25:36;;;;;;;16.83;10.80;;;;;;;32.36;26.80;97529.66;10281724;28;20065;-51
2023/07/24 10:30:36;;;;;;;15.07;9.40;;;;;;;32.52;27.12;97521.00;10283958;28;20069;-52
2023/07/24 10:35:38;;;;;;;13.35;9.88;;;;;;;32.73;27.34;97518.16;10285810;28;20073;-51
2023/07/24 10:40:40;;;;;;;16.08;11.05;;;;;;;32.91;27.35;97514.69;10285673;28;20057;-52
2023/07/24 10:45:46;;;;;;;18.27;9.82;;;;;;;33.33;27.54;97512.38;10278879;28;20073;-53
2023/07/24 10:50:47;;;;;;;13.80;9.57;;;;;;;33.38;26.28;97517.31;10286647;28;20651;-51
2023/07/24 10:55:47;;;;;;;16.48;9.02;;;;;;;33.46;27.72;97512.84;10285349;28;20069;-51
2023/07/24 11:00:47;;;;;;;23.08;9.43;;;;;;;33.80;28.69;97492.53;10285627;28;20070;-52
2023/07/24 11:05:47;;;;;;;19.85;9.73;;;;;;;34.05;28.76;97498.97;10283614;28;20072;-52
2023/07/24 11:10:49;;;;;;;18.85;9.07;;;;;;;34.27;28.16;97493.13;10286923;28;20064;-53
2023/07/24 11:15:50;;;;;;;18.60;9.30;;;;;;;34.51;28.29;97478.13;10293434;28;20177;-53
2023/07/24 11:20:56;;;;;;;14.27;8.98;;;;;;;34.62;27.65;97471.66;10293841;28;20076;-52
2023/07/24 11:25:55;;;;;;;23.52;10.25;;;;;;;34.74;27.97;97478.44;10289880;28;20058;-52
2023/07/24 11:30:54;;;;;;;15.10;8.82;;;;;;;34.79;27.95;97473.41;10288481;28;20472;-51
2023/07/24 11:35:53;;;;;;;14.85;9.32;;;;;;;34.99;28.35;97454.28;10288874;28;20491;-53
2023/07/24 11:40:54;;;;;;;18.40;9.20;;;;;;;35.42;28.29;97455.09;10288301;28;20065;-52
2023/07/24 11:45:54;;;;;;;15.60;9.07;;;;;;;35.59;27.25;97450.59;10287600;28;20470;-51
2023/07/24 11:50:56;;;;;;;13.88;9.02;;;;;;;35.50;26.90;97449.72;10285311;28;20061;-53
2023/07/24 11:55:59;;;;;;;14.52;9.10;;;;;;;35.30;26.85;97441.94;10282954;28;20069;-54
2023/07/24 12:00:58;;;;;;;16.05;9.77;;;;;;;35.34;26.38;97442.47;10284656;28;20129;-53
2023/07/24 12:05:57;;;;;;;16.15;9.15;;;;;;;35.23;26.28;97432.81;10284264;28;20030;-53
2023/07/24 12:10:56;;;;;;;17.48;9.73;;;;;;;35.35;26.41;97442.28;10285136;28;20120;-54
2023/07/24 12:15:55;;;;;;;13.63;8.52;;;;;;;34.95;27.81;97442.16;10283105;28;20066;-53
2023/07/24 12:20:54;;;;;;;13.23;9.45;;;;;;;34.75;26.76;97437.00;10285616;28;20033;-52
2023/07/24 12:25:53;;;;;;;14.68;9.50;;;;;;;34.79;26.53;97442.91;10281679;28;20037;-53
2023/07/24 12:30:52;;;;;;;13.55;9.65;;;;;;;34.81;24.66;97436.34;10284078;28;20053;-53
2023/07/24 12:35:52;;;;;;;12.93;8.63;;;;;;;34.43;29.55;97443.91;10283629;28;20133;-52
2023/07/24 12:40:51;;;;;;;12.00;8.35;;;;;;;34.30;30.28;97446.16;10284169;28;20121;-53
2023/07/24 12:45:50;;;;;;;13.23;8.98;;;;;;;34.12;30.58;97440.81;10283956;28;20036;-53
2023/07/24 12:50:49;;;;;;;11.65;8.90;;;;;;;34.38;31.32;97424.69;10282615;28;20026;-53
2023/07/24 12:55:48;;;;;;;12.63;8.43;;;;;;;34.42;30.22;97388.31;10282485;28;20144;-53
2023/07/24 13:00:47;;;;;;;21.17;8.63;;;;;;;34.60;29.11;97428.66;10283930;28;20041;-53
2023/07/24 13:05:46;;;;;;;13.82;6.30;;;;;;;34.14;29.02;97437.97;10282650;28;20044;-53
2023/07/24 13:10:45;;;;;;;14.60;8.10;;;;;;;33.94;29.77;97418.47;10281527;28;20748;-51
2023/07/24 13:15:44;;;;;;;13.63;8.50;;;;;;;34.08;30.02;97418.72;10282828;28;20169;-51
2023/07/24 13:20:43;;;;;;;11.95;8.07;;;;;;;34.16;28.77;97414.44;10280742;28;20051;-51
2023/07/24 13:25:42;;;;;;;14.10;9.15;;;;;;;34.16;29.41;97409.88;10284808;28;20113;-51
2023/07/24 13:30:41;;;;;;;12.32;8.77;;;;;;;34.26;29.53;97394.47;10283090;28;20492;-52
2023/07/24 13:35:40;;;;;;;12.27;8.13;;;;;;;34.39;27.24;97398.56;10281867;28;20455;-53
2023/07/24 13:40:39;;;;;;;11.48;8.43;;;;;;;34.63;29.36;97393.31;10285956;28;20487;-53
2023/07/24 13:45:37;;;;;;;13.50;9.23;;;;;;;34.76;28.78;97390.19;10283213;28;20130;-52
2023/07/24 13:50:36;;;;;;;11.27;8.90;;;;;;;34.69;29.76;97378.38;10284399;28;20061;-53
2023/07/24 13:55:36;;;;;;;13.45;9.65;;;;;;;34.78;29.79;97382.78;10281986;28;20112;-52
2023/07/24 14:00:35;;;;;;;13.63;8.88;;;;;;;34.77;28.94;97370.28;10284701;28;20069;-53
2023/07/24 14:05:36;;;;;;;12.60;8.38;;;;;;;34.68;29.04;97371.25;10278195;28;20061;-53
2023/07/24 14:10:35;;;;;;;13.75;9.43;;;;;;;34.44;30.81;97367.44;10279896;28;20136;-53
2023/07/24 14:15:34;;;;;;;12.77;9.50;;;;;;;34.07;30.71;97351.56;10283770;28;20053;-52
2023/07/24 14:20:33;;;;;;;13.90;8.90;;;;;;;34.10;30.51;97375.50;10284035;28;20033;-50
2023/07/24 14:25:32;;;;;;;13.25;9.82;;;;;;;34.02;30.52;97372.75;10283766;28;20025;-51
2023/07/24 14:30:31;;;;;;;13.10;9.57;;;;;;;33.83;30.66;97349.56;10280593;28;20408;-53
2023/07/24 14:35:30;;;;;;;12.00;9.60;;;;;;;33.87;29.77;97359.03;10281123;28;20419;-52
2023/07/24 14:40:29;;;;;;;12.38;8.80;;;;;;;33.75;30.11;97363.81;10283283;28;20069;-51
2023/07/24 14:45:28;;;;;;;12.65;8.98;;;;;;;33.74;29.71;97361.28;10283248;28;20026;-52
2023/07/24 14:50:27;;;;;;;14.13;9.15;;;;;;;33.56;30.12;97359.44;10293412;28;20029;-51
2023/07/24 14:55:26;;;;;;;15.15;9.88;;;;;;;33.70;29.14;97367.97;10295695;28;20141;-51
2023/07/24 15:00:25;;;;;;;14.07;9.88;;;;;;;33.82;29.68;97366.72;10293953;28;20091;-51
2023/07/24 15:05:24;;;;;;;13.23;8.93;;;;;;;33.89;29.51;97368.63;10294358;28;20069;-51
2023/07/24 15:10:23;;;;;;;13.93;9.52;;;;;;;33.65;29.81;97320.88;10295538;28;20547;-54
2023/07/24 15:15:22;;;;;;;14.88;10.18;;;;;;;33.63;29.75;97349.78;10295387;28;20088;-52
2023/07/24 15:20:21;;;;;;;13.85;9.75;;;;;;;33.63;29.46;97351.59;10294019;28;20149;-53
2023/07/24 15:25:21;;;;;;;13.07;9.15;;;;;;;33.29;29.89;97362.22;10293842;28;20081;-52
2023/07/24 15:30:19;;;;;;;14.13;9.30;;;;;;;33.47;30.62;97363.06;10292976;28;20453;-52
2023/07/24 15:35:19;;;;;;;13.18;9.63;;;;;;;33.21;30.11;97350.41;10293039;28;20558;-52
2023/07/24 15:40:17;;;;;;;13.00;9.30;;;;;;;33.01;29.92;97343.44;10294065;28;20065;-53
2023/07/24 15:45:16;;;;;;;17.60;10.00;;;;;;;33.16;30.31;97331.22;10299413;28;20030;-53
2023/07/24 15:50:16;;;;;;;14.07;9.80;;;;;;;32.93;30.83;97324.56;10293605;28;20069;-53
2023/07/24 15:55:14;;;;;;;14.63;9.30;;;;;;;32.72;31.48;97333.75;10294573;28;20060;-53
2023/07/24 16:00:14;;;;;;;13.20;8.90;;;;;;;32.55;31.67;97340.75;10286794;28;20022;-51
2023/07/24 16:05:21;;;;;;;15.20;9.80;;;;;;;32.57;31.87;97333.41;10288868;28;20065;-51
2023/07/24 16:10:21;;;;;;;16.90;9.93;;;;;;;32.63;32.42;97329.28;10287531;28;20117;-54
2023/07/24 16:15:20;;;;;;;13.68;10.32;;;;;;;32.51;32.24;97333.16;10285606;28;20125;-53
2023/07/24 16:20:21;;;;;;;12.15;8.70;;;;;;;32.39;32.72;97344.09;10286916;28;20049;-51
2023/07/24 16:25:20;;;;;;;14.50;9.18;;;;;;;32.33;32.74;97339.28;10287167;28;20069;-53
2023/07/24 16:30:19;;;;;;;14.07;9.65;;;;;;;32.21;33.53;97351.22;10287913;28;20045;-50
2023/07/24 16:35:18;;;;;;;16.15;9.50;;;;;;;32.08;33.43;97356.06;10289113;28;20033;-52
2023/07/24 16:40:17;;;;;;;12.48;8.90;;;;;;;31.89;33.77;97347.03;10287845;28;20503;-52
2023/07/24 16:45:15;;;;;;;13.65;9.25;;;;;;;31.63;34.36;97354.03;10289375;28;20491;-52
2023/07/24 16:50:15;;;;;;;12.95;9.52;;;;;;;31.51;34.83;97356.03;10288936;28;20048;-52
2023/07/24 16:55:14;;;;;;;15.02;10.15;;;;;;;31.54;34.67;97371.81;10290190;28;20070;-52
2023/07/24 17:00:15;;;;;;;15.02;10.15;;;;;;;31.45;35.20;97368.16;10287048;28;20113;-54
2023/07/24 17:05:14;;;;;;;13.38;8.98;;;;;;;31.37;35.70;97363.47;10285078;28;20061;-52
2023/07/24 17:10:14;;;;;;;14.52;9.05;;;;;;;31.31;35.04;97371.22;10286948;28;20046;-51
2023/07/24 17:15:13;;;;;;;15.05;9.45;;;;;;;31.13;35.88;97374.63;10286195;28;20475;-52
2023/07/24 17:20:12;;;;;;;15.35;9.50;;;;;;;31.16;36.37;97366.31;10282659;28;20472;-52
2023/07/24 17:25:11;;;;;;;17.10;10.63;;;;;;;31.10;38.03;97366.00;10282727;28;20551;-51
2023/07/24 17:30:10;;;;;;;14.68;10.10;;;;;;;30.93;39.03;97356.78;10280312;28;20713;-50
2023/07/24 17:35:09;;;;;;;65.65;12.95;;;;;;;30.60;39.82;97361.53;10281891;28;20482;-50
2023/07/24 17:40:08;;;;;;;29.70;11.55;;;;;;;30.34;40.32;97369.16;10280185;28;20517;-51
2023/07/24 17:45:08;;;;;;;18.17;10.55;;;;;;;30.05;40.96;97374.41;10285859;28;20113;-51
2023/07/24 17:50:07;;;;;;;15.18;9.68;;;;;;;29.74;41.19;97382.31;10281564;28;20485;-50
2023/07/24 17:55:07;;;;;;;14.38;10.05;;;;;;;29.40;41.43;97385.19;10279037;28;20121;-49
2023/07/24 18:00:06;;;;;;;14.93;10.02;;;;;;;29.03;41.83;97377.50;10281438;28;20559;-53
2023/07/24 18:05:05;;;;;;;14.38;10.02;;;;;;;28.75;42.65;97378.06;10280343;28;20057;-51
2023/07/24 18:10:06;;;;;;;14.80;9.98;;;;;;;28.42;43.55;97377.13;10278991;28;20072;-48
2023/07/24 18:15:06;;;;;;;15.70;10.68;;;;;;;28.08;44.88;97373.59;10281258;28;20136;-50
2023/07/24 18:20:05;;;;;;;19.27;9.85;;;;;;;27.68;46.45;97372.19;10278288;28;20061;-51
2023/07/24 18:25:05;;;;;;;16.00;10.02;;;;;;;27.44;46.70;97379.34;10280507;28;20054;-51
2023/07/24 18:30:06;;;;;;;19.20;11.02;;;;;;;27.21;47.18;97387.25;10278010;28;20129;-49
2023/07/24 18:35:05;;;;;;;14.63;10.20;;;;;;;26.91;48.35;97398.34;10279807;28;20513;-52
2023/07/24 18:40:05;;;;;;;16.80;11.23;;;;;;;26.70;48.30;97390.94;10279915;28;20479;-52
2023/07/24 18:45:04;;;;;;;14.23;10.60;;;;;;;26.44;48.76;97365.34;10279284;28;20531;-51
2023/07/24 18:50:04;;;;;;;16.83;11.50;;;;;;;26.35;48.94;97365.06;10253267;28;20073;-55
2023/07/24 18:55:03;;;;;;;18.77;11.85;;;;;;;26.07;51.76;97381.25;10279361;28;20125;-52
2023/07/24 19:00:03;;;;;;;20.27;12.20;;;;;;;25.92;52.41;97377.81;10279038;28;20065;-52
2023/07/24 19:05:03;;;;;;;18.48;11.27;;;;;;;25.85;52.07;97376.53;10277173;28;20092;-51
2023/07/24 19:10:01;;;;;;;19.42;12.52;;;;;;;25.72;51.84;97368.59;10277174;28;20077;-51
2023/07/24 19:15:00;;;;;;;19.85;12.13;;;;;;;25.67;52.07;97374.22;10278734;28;20041;-52
2023/07/24 19:20:00;;;;;;;16.52;11.63;;;;;;;25.55;52.39;97353.78;10279146;28;20050;-50
2023/07/24 19:24:59;;;;;;;20.58;11.32;;;;;;;25.52;53.23;97376.06;10277061;28;20639;-51
2023/07/24 19:30:01;;;;;;;19.52;11.07;;;;;;;25.18;54.89;97355.41;10279695;28;20131;-50
2023/07/24 19:35:02;;;;;;;16.77;10.52;;;;;;;25.18;55.24;97371.31;10281994;28;20144;-51
2023/07/24 19:40:01;;;;;;;17.52;11.00;;;;;;;25.08;54.73;97381.69;10286185;28;20104;-52
2023/07/24 19:45:00;;;;;;;15.60;10.75;;;;;;;24.96;54.22;97372.72;10285577;28;20026;-51
2023/07/24 19:49:59;;;;;;;19.77;12.32;;;;;;;24.93;55.00;97382.69;10284915;28;20501;-51
2023/07/24 19:54:58;;;;;;;17.20;11.13;;;;;;;24.72;57.20;97398.16;10285048;28;20036;-52
2023/07/24 19:59:57;;;;;;;19.95;11.88;;;;;;;24.56;59.07;97396.47;10282411;28;20034;-51
2023/07/24 20:04:56;;;;;;;20.83;13.68;;;;;;;24.38;59.54;97394.97;10285405;28;20064;-49
2023/07/24 20:09:55;;;;;;;19.65;13.15;;;;;;;24.24;60.88;97396.72;10285499;28;20033;-52
2023/07/24 20:14:53;;;;;;;18.08;12.68;;;;;;;24.06;61.66;97393.38;10283027;28;20048;-53
2023/07/24 20:19:52;;;;;;;20.70;12.73;;;;;;;23.94;62.17;97393.28;10289516;28;20670;-53
2023/07/24 20:24:51;;;;;;;23.88;13.65;;;;;;;23.82;62.50;97397.53;10283749;28;20579;-52
2023/07/24 20:29:50;;;;;;;26.15;13.23;;;;;;;23.70;63.52;97385.88;10285869;28;20526;-52
2023/07/24 20:34:49;;;;;;;20.25;12.85;;;;;;;23.55;64.44;97387.63;10283151;28;20037;-51
2023/07/24 20:39:49;;;;;;;21.83;12.80;;;;;;;23.46;65.12;97388.13;10282891;28;20133;-53
2023/07/24 20:44:52;;;;;;;21.73;13.18;;;;;;;23.34;65.32;97380.91;10283572;28;20028;-51
2023/07/24 20:49:51;;;;;;;20.75;11.88;;;;;;;23.25;66.18;97374.34;10282700;28;20089;-52
2023/07/24 20:54:50;;;;;;;17.23;11.35;;;;;;;23.11;66.36;97364.56;10283345;28;20034;-52
2023/07/24 20:59:49;;;;;;;18.42;11.75;;;;;;;23.09;66.30;97363.81;10283564;28;20025;-51
2023/07/24 21:04:48;;;;;;;17.52;11.77;;;;;;;23.07;66.36;97349.81;10280225;28;20034;-50
2023/07/24 21:09:52;;;;;;;20.25;12.55;;;;;;;22.99;67.10;97344.94;10283604;28;20049;-55
2023/07/24 21:14:51;;;;;;;18.10;12.48;;;;;;;22.88;67.22;97323.56;10280810;28;20077;-49
2023/07/24 21:19:50;;;;;;;20.20;13.02;;;;;;;22.84;66.96;97322.03;10280565;28;20022;-52
2023/07/24 21:24:49;;;;;;;19.35;12.90;;;;;;;22.76;68.80;97314.56;10282139;28;20107;-51
2023/07/24 21:29:55;;;;;;;18.38;12.43;;;;;;;22.58;69.55;97304.97;10286984;28;20519;-51
2023/07/24 21:34:54;;;;;;;19.05;12.27;;;;;;;22.49;69.67;97302.84;10285258;28;20084;-52
2023/07/24 21:39:52;;;;;;;23.70;13.40;;;;;;;22.38;69.89;97293.72;10284218;28;20022;-52
2023/07/24 21:44:51;;;;;;;18.42;12.27;;;;;;;22.33;68.20;97295.78;10285697;28;20505;-52
2023/07/24 21:49:50;;;;;;;19.75;12.07;;;;;;;22.19;67.16;97300.97;10284815;28;20439;-51
2023/07/24 21:54:49;;;;;;;19.98;12.15;;;;;;;22.04;66.26;97299.16;10283531;28;20148;-51
2023/07/24 21:59:48;;;;;;;20.38;12.07;;;;;;;21.83;65.79;97283.53;10284118;28;20113;-52
2023/07/24 22:04:47;;;;;;;18.38;12.57;;;;;;;21.73;64.91;97300.78;10281527;28;20032;-49
2023/07/24 22:09:46;;;;;;;19.83;12.45;;;;;;;21.76;64.76;97290.94;10283582;28;20560;-50
2023/07/24 22:14:45;;;;;;;18.98;11.77;;;;;;;21.68;65.06;97286.97;10279639;28;20534;-50
2023/07/24 22:19:44;;;;;;;17.80;12.10;;;;;;;21.68;65.68;97294.91;10276337;28;20105;-50
2023/07/24 22:24:43;;;;;;;16.73;11.30;;;;;;;21.63;66.00;97289.88;10279296;28;20091;-52
2023/07/24 22:29:42;;;;;;;23.48;13.70;;;;;;;21.58;66.39;97296.34;10279099;28;20185;-50
2023/07/24 22:34:41;;;;;;;19.00;12.98;;;;;;;21.50;67.50;97291.44;10279409;28;20068;-48
2023/07/24 22:39:40;;;;;;;17.75;11.38;;;;;;;21.46;68.65;97298.69;10280255;28;20113;-52
2023/07/24 22:44:42;;;;;;;17.92;12.48;;;;;;;21.41;69.05;97295.44;10278406;28;20104;-52